Time;durP1;ratioP1;P1;durP2;ratioP2;P2;SDS_P1;SDS_P2;PMS_P1;PMS_P2;Temp;Humidity;BMP_temperature;BMP_pressure;BME280_temperature;BME280_humidity;BME280_pressure;Samples;Min_cycle;Max_cycle;Signal;HPM_P1;HPM_P2
2022/04/10 00:00:43;;;;;;;10.02;2.28;;;2.30;90.90;;;;;;5052554;28;20020;-82
2022/04/10 00:03:09;;;;;;;8.95;2.60;;;2.20;91.10;;;;;;5069728;28;20021;-82
2022/04/10 00:05:35;;;;;;;9.48;1.63;;;2.10;91.40;;;;;;5051030;28;20197;-81
2022/04/10 00:08:00;;;;;;;8.35;1.80;;;2.10;91.60;;;;;;5071529;28;20115;-82
2022/04/10 00:10:26;;;;;;;13.40;2.28;;;2.10;91.90;;;;;;5052819;28;20032;-82
2022/04/10 00:12:51;;;;;;;8.20;1.95;;;2.10;92.00;;;;;;5053666;28;20039;-82
2022/04/10 00:15:17;;;;;;;8.63;2.08;;;2.10;92.10;;;;;;5071248;28;20035;-81
2022/04/10 00:17:42;;;;;;;11.10;2.58;;;2.10;92.20;;;;;;5069396;28;20770;-82
2022/04/10 00:20:09;;;;;;;7.38;2.20;;;2.10;92.20;;;;;;5069962;28;20376;-81
2022/04/10 00:22:48;;;;;;;4.95;1.85;;;2.10;92.20;;;;;;5052316;28;20071;-81
2022/04/10 00:25:16;;;;;;;12.18;2.42;;;2.10;92.40;;;;;;5051956;28;20028;-81
2022/04/10 00:27:42;;;;;;;9.60;2.65;;;2.10;92.40;;;;;;5068134;28;20076;-81
2022/04/10 00:30:13;;;;;;;13.35;2.30;;;2.10;92.40;;;;;;5050590;28;20030;-81
2022/04/10 00:32:39;;;;;;;5.55;2.03;;;2.10;92.50;;;;;;5046784;28;20032;-82
2022/04/10 00:35:05;;;;;;;9.05;2.10;;;2.10;92.50;;;;;;5047542;28;20048;-82
2022/04/10 00:37:35;;;;;;;9.48;2.55;;;2.10;92.50;;;;;;5061502;28;20484;-81
2022/04/10 00:40:01;;;;;;;5.55;1.95;;;2.10;92.60;;;;;;5064793;28;20024;-81
2022/04/10 00:42:41;;;;;;;12.23;3.10;;;2.10;92.60;;;;;;5058477;28;20090;-81
2022/04/10 00:45:09;;;;;;;11.30;2.45;;;2.00;92.60;;;;;;5064777;28;20016;-82
2022/04/10 00:47:34;;;;;;;8.32;2.08;;;2.00;92.70;;;;;;5070715;28;20052;-81
2022/04/10 00:50:03;;;;;;;9.98;2.38;;;1.90;92.80;;;;;;5068371;28;20091;-82
2022/04/10 00:52:30;;;;;;;10.55;2.70;;;2.00;92.90;;;;;;5068798;28;20024;-81
2022/04/10 00:54:56;;;;;;;7.60;2.30;;;2.00;93.00;;;;;;5068657;28;20036;-81
2022/04/10 00:57:23;;;;;;;11.30;2.53;;;2.10;92.90;;;;;;5068684;28;20111;-81
2022/04/10 00:59:48;;;;;;;10.93;2.72;;;2.10;92.90;;;;;;5069762;28;20025;-81
2022/04/10 01:02:14;;;;;;;13.18;2.90;;;2.10;92.80;;;;;;5068406;28;20036;-82
2022/04/10 01:04:40;;;;;;;16.63;2.70;;;2.10;92.80;;;;;;5068614;28;20062;-81
2022/04/10 01:07:06;;;;;;;11.75;2.92;;;2.20;92.80;;;;;;5073653;28;20031;-81
2022/04/10 01:09:32;;;;;;;9.65;2.60;;;2.20;92.70;;;;;;5065349;28;20048;-81
2022/04/10 01:11:58;;;;;;;8.77;2.30;;;2.20;92.70;;;;;;5074924;28;20032;-81
2022/04/10 01:14:24;;;;;;;11.38;2.55;;;2.30;92.70;;;;;;5073247;28;20113;-81
2022/04/10 01:16:49;;;;;;;15.77;3.33;;;2.20;92.50;;;;;;5073523;28;20097;-81
2022/04/10 01:19:19;;;;;;;13.85;2.50;;;2.30;92.50;;;;;;5055743;28;20439;-82
2022/04/10 01:21:49;;;;;;;7.38;2.67;;;2.30;92.50;;;;;;5074085;28;20016;-81
2022/04/10 01:24:15;;;;;;;11.57;2.65;;;2.30;92.30;;;;;;5064450;28;20044;-81
2022/04/10 01:26:42;;;;;;;10.63;2.70;;;2.40;92.40;;;;;;5057549;28;20111;-81
2022/04/10 01:29:10;;;;;;;20.25;2.63;;;2.40;92.40;;;;;;5073503;28;20036;-81
2022/04/10 01:31:38;;;;;;;10.30;3.05;;;2.40;92.30;;;;;;5079056;28;20031;-82
2022/04/10 01:34:07;;;;;;;13.88;3.20;;;2.40;92.30;;;;;;5077005;28;20111;-82
2022/04/10 01:36:34;;;;;;;13.68;2.55;;;2.40;92.40;;;;;;5066529;28;20056;-82
2022/04/10 01:39:02;;;;;;;9.32;3.08;;;2.40;92.20;;;;;;5073508;28;20056;-81
2022/04/10 01:41:28;;;;;;;10.63;2.58;;;2.40;92.30;;;;;;5073226;28;20419;-82
2022/04/10 01:43:56;;;;;;;12.80;2.97;;;2.40;92.30;;;;;;5062072;28;20025;-81
2022/04/10 01:46:23;;;;;;;13.07;3.03;;;2.40;92.20;;;;;;5074080;28;20086;-82
2022/04/10 01:48:49;;;;;;;7.22;1.90;;;2.30;92.20;;;;;;5070983;28;20028;-82
2022/04/10 01:51:15;;;;;;;12.70;3.00;;;2.40;92.20;;;;;;5070663;28;20028;-81
2022/04/10 01:53:41;;;;;;;12.15;2.95;;;2.40;92.10;;;;;;5063201;28;20622;-81
2022/04/10 01:56:07;;;;;;;9.88;2.60;;;2.40;92.10;;;;;;5071862;28;20037;-81
2022/04/10 01:58:38;;;;;;;8.80;2.80;;;2.40;92.20;;;;;;5072215;28;20020;-82
2022/04/10 02:01:06;;;;;;;10.32;2.55;;;2.30;92.30;;;;;;5063408;28;20422;-82
2022/04/10 02:03:32;;;;;;;8.18;1.98;;;2.20;92.50;;;;;;5069651;28;20119;-82
2022/04/10 02:05:57;;;;;;;7.00;2.10;;;2.10;92.70;;;;;;5067800;28;20116;-82
2022/04/10 02:08:23;;;;;;;9.68;1.95;;;2.10;92.80;;;;;;5063296;28;20499;-82
2022/04/10 02:10:49;;;;;;;16.23;2.80;;;2.10;93.00;;;;;;5060356;28;20110;-82
2022/04/10 02:13:14;;;;;;;14.68;2.75;;;2.00;93.10;;;;;;5072930;28;20025;-82
2022/04/10 02:15:40;;;;;;;10.57;2.28;;;2.00;93.30;;;;;;5072047;28;20024;-82
2022/04/10 02:18:06;;;;;;;10.80;2.72;;;1.90;93.40;;;;;;5067790;28;20038;-82
2022/04/10 02:20:32;;;;;;;12.80;2.42;;;1.90;93.60;;;;;;5070196;28;20067;-82
2022/04/10 02:22:58;;;;;;;9.43;2.28;;;1.90;93.70;;;;;;5072048;28;20056;-83
2022/04/10 02:25:23;;;;;;;10.80;2.50;;;2.00;93.80;;;;;;5072470;28;20558;-82
2022/04/10 02:27:49;;;;;;;5.10;1.73;;;1.90;93.80;;;;;;5066359;28;20373;-82
2022/04/10 02:30:14;;;;;;;10.40;2.75;;;2.00;93.80;;;;;;5087401;28;20480;-82
2022/04/10 02:32:40;;;;;;;13.77;2.50;;;1.90;93.70;;;;;;5071140;28;20039;-82
2022/04/10 02:35:07;;;;;;;17.38;2.70;;;1.80;93.70;;;;;;5071575;28;20130;-82
2022/04/10 02:37:33;;;;;;;11.98;2.70;;;1.80;93.70;;;;;;5072889;28;20037;-82
2022/04/10 02:39:58;;;;;;;9.63;2.13;;;1.80;93.80;;;;;;5055260;28;20039;-82
2022/04/10 02:42:24;;;;;;;10.38;2.47;;;1.80;94.00;;;;;;5055378;28;20074;-82
2022/04/10 02:44:49;;;;;;;12.38;2.33;;;1.70;93.90;;;;;;5072101;28;20103;-82
2022/04/10 02:47:15;;;;;;;18.27;3.20;;;1.70;94.00;;;;;;5045710;28;20488;-82
2022/04/10 02:49:40;;;;;;;9.57;2.78;;;1.80;94.10;;;;;;5049119;28;20021;-82
2022/04/10 02:52:06;;;;;;;16.13;3.15;;;1.70;94.00;;;;;;5050045;28;20020;-82
2022/04/10 02:54:32;;;;;;;18.33;3.10;;;1.70;94.00;;;;;;5064527;28;20027;-82
2022/04/10 02:56:57;;;;;;;9.68;2.60;;;1.70;94.10;;;;;;5053326;28;20107;-82
2022/04/10 02:59:23;;;;;;;10.65;2.75;;;1.70;94.10;;;;;;5060677;28;20103;-82
2022/04/10 03:01:50;;;;;;;14.05;2.83;;;1.70;94.00;;;;;;5071205;28;20052;-82
2022/04/10 03:04:16;;;;;;;14.77;2.72;;;1.60;94.00;;;;;;5049287;28;20088;-82
2022/04/10 03:06:41;;;;;;;18.42;3.20;;;1.60;94.00;;;;;;5053897;28;20135;-82
2022/04/10 03:09:07;;;;;;;17.23;3.30;;;1.60;94.00;;;;;;5071575;28;20115;-82
2022/04/10 03:11:33;;;;;;;14.57;3.45;;;1.50;94.10;;;;;;5073261;28;20074;-82
2022/04/10 03:13:59;;;;;;;12.20;3.65;;;1.50;94.10;;;;;;5072578;28;20032;-82
2022/04/10 03:16:24;;;;;;;12.52;2.90;;;1.40;94.20;;;;;;5054298;28;20107;-82
2022/04/10 03:18:51;;;;;;;10.70;2.95;;;1.40;94.20;;;;;;5061832;28;20085;-82
2022/04/10 03:21:20;;;;;;;9.90;2.65;;;1.40;94.30;;;;;;5052828;28;20028;-82
2022/04/10 03:23:45;;;;;;;8.18;2.92;;;1.30;94.30;;;;;;5062388;28;20029;-82
2022/04/10 03:26:11;;;;;;;13.52;2.58;;;1.30;94.30;;;;;;5056072;28;20433;-82
2022/04/10 03:28:36;;;;;;;18.80;3.38;;;1.30;94.40;;;;;;5052840;28;20388;-82
2022/04/10 03:31:02;;;;;;;10.30;3.30;;;1.40;94.40;;;;;;5053597;28;20115;-82
2022/04/10 03:33:28;;;;;;;13.75;2.95;;;1.40;94.30;;;;;;5049804;28;20171;-82
2022/04/10 03:35:54;;;;;;;14.65;2.63;;;1.40;94.30;;;;;;5060234;28;20098;-82
2022/04/10 03:38:19;;;;;;;18.45;3.25;;;1.40;94.10;;;;;;5071435;28;20055;-82
2022/04/10 03:40:45;;;;;;;13.10;2.85;;;1.40;94.10;;;;;;5053878;28;20021;-82
2022/04/10 03:43:12;;;;;;;7.07;2.40;;;1.40;94.00;;;;;;5053237;28;20016;-82
2022/04/10 03:45:38;;;;;;;8.75;2.20;;;1.40;94.00;;;;;;5054149;28;20384;-82
2022/04/10 03:48:07;;;;;;;10.50;2.60;;;1.50;93.90;;;;;;5052655;28;20055;-82
2022/04/10 03:50:34;;;;;;;8.30;2.65;;;1.60;93.90;;;;;;5049589;28;20135;-82
2022/04/10 03:53:00;;;;;;;9.57;2.30;;;1.60;93.80;;;;;;5047487;28;20115;-82
2022/04/10 03:55:27;;;;;;;12.30;2.95;;;1.60;93.80;;;;;;5053869;28;20111;-82
2022/04/10 03:57:52;;;;;;;12.05;2.67;;;1.60;93.80;;;;;;5071632;28;20029;-82
2022/04/10 04:00:21;;;;;;;10.13;2.33;;;1.60;93.80;;;;;;5059662;28;20055;-82
2022/04/10 04:02:46;;;;;;;7.72;2.33;;;1.60;93.90;;;;;;5069939;28;20033;-82
2022/04/10 04:05:12;;;;;;;11.85;2.85;;;1.50;94.00;;;;;;5052228;28;20040;-82
2022/04/10 04:07:39;;;;;;;8.48;2.58;;;1.50;94.10;;;;;;5071174;28;20530;-82
2022/04/10 04:10:05;;;;;;;13.38;2.55;;;1.40;94.20;;;;;;5058903;28;20021;-82
2022/04/10 04:12:31;;;;;;;10.43;2.75;;;1.40;94.30;;;;;;5053424;28;20033;-83
2022/04/10 04:14:57;;;;;;;10.55;3.20;;;1.50;94.40;;;;;;5053853;28;20025;-82
2022/04/10 04:17:22;;;;;;;12.07;2.80;;;1.40;94.40;;;;;;5047794;28;20074;-82
2022/04/10 04:19:50;;;;;;;14.90;2.80;;;1.50;94.50;;;;;;5069414;28;20031;-82
2022/04/10 04:22:16;;;;;;;12.30;2.78;;;1.50;94.50;;;;;;5065308;28;20476;-82
2022/04/10 04:24:42;;;;;;;6.70;2.00;;;1.50;94.60;;;;;;5071429;28;20499;-81
2022/04/10 04:27:07;;;;;;;12.55;2.92;;;1.60;94.50;;;;;;5071811;28;20032;-81
2022/04/10 04:29:34;;;;;;;11.93;2.30;;;1.60;94.50;;;;;;5071223;28;20028;-84
2022/04/10 04:31:59;;;;;;;10.38;2.85;;;1.70;94.50;;;;;;5073044;28;20032;-85
2022/04/10 04:34:25;;;;;;;8.75;2.97;;;1.60;94.40;;;;;;5057596;28;20391;-82
2022/04/10 04:36:50;;;;;;;12.73;2.85;;;1.50;94.40;;;;;;5037489;28;20045;-82
2022/04/10 04:39:16;;;;;;;12.57;3.22;;;1.40;94.50;;;;;;5033781;28;20064;-83
2022/04/10 04:41:42;;;;;;;9.45;2.63;;;1.30;94.60;;;;;;5034050;28;20370;-82
2022/04/10 04:44:07;;;;;;;6.00;2.28;;;1.20;94.70;;;;;;5050380;28;20763;-82
2022/04/10 04:46:33;;;;;;;7.95;2.45;;;1.20;94.80;;;;;;5033648;28;20820;-82
2022/04/10 04:48:58;;;;;;;8.65;2.50;;;1.20;94.70;;;;;;5050718;28;20028;-82
2022/04/10 04:51:24;;;;;;;12.40;3.10;;;1.20;94.80;;;;;;5033145;28;20495;-83
2022/04/10 04:53:49;;;;;;;6.10;2.50;;;1.20;94.80;;;;;;5033281;28;20462;-82
2022/04/10 04:56:15;;;;;;;8.40;2.80;;;1.20;94.90;;;;;;5051969;28;20087;-82
2022/04/10 04:58:42;;;;;;;13.68;3.80;;;1.20;94.90;;;;;;5032085;28;20028;-82
2022/04/10 05:01:07;;;;;;;10.95;3.53;;;1.30;95.00;;;;;;5032508;28;20018;-82
2022/04/10 05:03:33;;;;;;;16.70;3.78;;;1.40;95.10;;;;;;5032279;28;20357;-82
2022/04/10 05:05:58;;;;;;;14.90;3.83;;;1.40;95.10;;;;;;5050183;28;20067;-82
2022/04/10 05:08:24;;;;;;;22.42;4.95;;;1.40;95.00;;;;;;5025687;28;20032;-82
2022/04/10 05:10:49;;;;;;;16.25;4.22;;;1.50;95.00;;;;;;5052041;28;20440;-82
2022/04/10 05:13:15;;;;;;;13.57;4.47;;;1.50;95.10;;;;;;5033375;28;20116;-82
2022/04/10 05:15:40;;;;;;;18.58;4.88;;;1.60;95.10;;;;;;5050629;28;20468;-82
2022/04/10 05:18:06;;;;;;;15.82;3.95;;;1.60;95.00;;;;;;5026965;28;20028;-82
2022/04/10 05:20:31;;;;;;;19.38;4.57;;;1.70;95.00;;;;;;5031743;28;20063;-82
2022/04/10 05:22:57;;;;;;;20.52;5.03;;;1.80;95.00;;;;;;5045175;28;20100;-84
2022/04/10 05:25:23;;;;;;;19.83;4.53;;;1.80;95.00;;;;;;5016472;28;20370;-82
2022/04/10 05:27:49;;;;;;;16.35;4.30;;;1.90;95.00;;;;;;5033232;28;20130;-82
2022/04/10 05:30:14;;;;;;;16.85;4.25;;;1.90;95.00;;;;;;5046916;28;20025;-83
2022/04/10 05:32:42;;;;;;;22.17;4.30;;;2.00;94.80;;;;;;5049837;28;20032;-83
2022/04/10 05:35:11;;;;;;;15.75;3.78;;;1.90;94.80;;;;;;5032459;28;20029;-84
2022/04/10 05:37:37;;;;;;;14.88;3.92;;;1.90;94.80;;;;;;5070248;28;20043;-83
2022/04/10 05:40:03;;;;;;;12.73;3.75;;;2.00;94.70;;;;;;5070567;28;20442;-83
2022/04/10 05:42:29;;;;;;;15.27;4.55;;;1.90;94.60;;;;;;5046706;28;20017;-83
2022/04/10 05:45:05;;;;;;;21.08;3.63;;;2.00;94.60;;;;;;5069971;28;20558;-83
2022/04/10 05:47:31;;;;;;;18.45;4.40;;;2.10;94.70;;;;;;5052129;28;20097;-83
2022/04/10 05:49:56;;;;;;;14.35;3.80;;;2.20;94.60;;;;;;5051983;28;20020;-83
2022/04/10 05:52:22;;;;;;;13.60;3.95;;;2.20;94.50;;;;;;5067425;28;20108;-84
2022/04/10 05:54:47;;;;;;;17.00;3.20;;;2.30;94.50;;;;;;5074089;28;20138;-83
2022/04/10 05:57:13;;;;;;;12.90;2.90;;;2.20;94.40;;;;;;5056345;28;20046;-83
2022/04/10 05:59:38;;;;;;;10.57;2.95;;;2.10;94.20;;;;;;5055004;28;20029;-83
2022/04/10 06:02:04;;;;;;;16.52;3.08;;;2.00;94.20;;;;;;5074071;28;20472;-84
2022/04/10 06:04:30;;;;;;;15.23;3.25;;;2.10;94.30;;;;;;5072163;28;20032;-84
2022/04/10 06:06:55;;;;;;;11.75;2.50;;;2.00;94.30;;;;;;5073482;28;20403;-83
2022/04/10 06:09:21;;;;;;;11.43;2.22;;;2.00;94.20;;;;;;5055541;28;20037;-84
2022/04/10 06:11:46;;;;;;;10.80;2.47;;;2.10;94.20;;;;;;5056027;28;20062;-83
2022/04/10 06:14:12;;;;;;;7.53;2.40;;;2.20;94.20;;;;;;5073946;28;20070;-84
2022/04/10 06:16:37;;;;;;;7.43;2.10;;;2.30;93.90;;;;;;5050178;28;20031;-84
2022/04/10 06:19:03;;;;;;;8.38;2.40;;;2.30;93.60;;;;;;5065824;28;20020;-84
2022/04/10 06:21:28;;;;;;;7.63;2.53;;;2.40;93.50;;;;;;5053660;28;20492;-83
2022/04/10 06:23:54;;;;;;;6.18;2.00;;;2.30;93.30;;;;;;5073048;28;20025;-83
2022/04/10 06:26:20;;;;;;;8.95;2.05;;;2.40;93.20;;;;;;5044258;28;20056;-83
2022/04/10 06:28:45;;;;;;;7.88;2.03;;;2.40;93.20;;;;;;5047712;28;20025;-83
2022/04/10 06:31:11;;;;;;;12.23;1.92;;;2.50;93.40;;;;;;5068523;28;20437;-84
2022/04/10 06:33:36;;;;;;;11.23;2.25;;;2.50;93.30;;;;;;5061785;28;20357;-83
2022/04/10 06:36:02;;;;;;;9.10;1.65;;;2.60;93.30;;;;;;5072375;28;20055;-83
2022/04/10 06:38:28;;;;;;;7.68;1.80;;;2.60;93.00;;;;;;5073954;28;20028;-83
2022/04/10 06:40:53;;;;;;;7.93;2.03;;;2.70;93.10;;;;;;5059971;28;20025;-83
2022/04/10 06:43:20;;;;;;;6.70;1.60;;;2.60;93.20;;;;;;5066304;28;20028;-84
2022/04/10 06:45:46;;;;;;;6.07;1.50;;;2.70;93.30;;;;;;5055022;28;20040;-84
2022/04/10 06:48:12;;;;;;;6.57;1.95;;;2.80;93.30;;;;;;5072079;28;20191;-83
2022/04/10 06:50:37;;;;;;;9.25;1.70;;;2.90;93.00;;;;;;5058958;28;20474;-84
2022/04/10 06:53:03;;;;;;;3.78;1.45;;;3.00;92.90;;;;;;5072129;28;20046;-83
2022/04/10 06:55:30;;;;;;;5.25;2.05;;;2.90;92.80;;;;;;5054399;28;20036;-83
2022/04/10 06:57:56;;;;;;;6.22;1.63;;;2.80;92.90;;;;;;5052516;28;20500;-83
2022/04/10 07:00:22;;;;;;;5.95;1.98;;;2.60;92.80;;;;;;5051455;28;20056;-83
2022/04/10 07:02:48;;;;;;;8.05;2.20;;;2.70;93.10;;;;;;5071139;28;20521;-83
2022/04/10 07:05:14;;;;;;;5.60;1.55;;;2.60;93.20;;;;;;5053716;28;20513;-84
2022/04/10 07:07:39;;;;;;;8.82;2.25;;;2.60;93.20;;;;;;5061981;28;20123;-84
2022/04/10 07:10:05;;;;;;;9.15;2.03;;;2.70;93.40;;;;;;5073163;28;20021;-83
2022/04/10 07:12:31;;;;;;;8.88;2.33;;;2.70;93.20;;;;;;5055268;28;20032;-83
2022/04/10 07:15:01;;;;;;;10.13;1.95;;;2.80;93.40;;;;;;5071646;28;20027;-83
2022/04/10 07:17:27;;;;;;;7.72;2.13;;;2.60;93.20;;;;;;5051060;28;20099;-83
2022/04/10 07:19:53;;;;;;;7.97;1.80;;;2.70;93.30;;;;;;5049310;28;20500;-83
2022/04/10 07:25:03;;;;;;;4.90;1.65;;;3.00;93.50;;;;;;5066641;28;20392;-84
2022/04/10 07:27:29;;;;;;;7.82;1.75;;;3.00;92.60;;;;;;5071214;28;20104;-83
2022/04/10 07:29:55;;;;;;;9.00;1.75;;;3.30;92.80;;;;;;5054195;28;20402;-83
2022/04/10 07:32:20;;;;;;;10.95;2.30;;;3.20;92.20;;;;;;5054031;28;20028;-83
2022/04/10 07:34:46;;;;;;;6.97;2.50;;;3.20;92.30;;;;;;5051955;28;20028;-83
2022/04/10 07:37:11;;;;;;;13.02;2.47;;;3.40;92.10;;;;;;5071056;28;20040;-83
2022/04/10 07:39:37;;;;;;;12.60;2.60;;;3.60;92.50;;;;;;5071319;28;20483;-83
2022/04/10 07:42:03;;;;;;;6.28;1.95;;;3.50;91.90;;;;;;5054251;28;20020;-83
2022/04/10 07:44:28;;;;;;;15.68;2.80;;;3.60;91.00;;;;;;5071890;28;20122;-83
2022/04/10 07:49:38;;;;;;;8.82;2.38;;;3.80;91.40;;;;;;5066863;28;20106;-83
2022/04/10 07:52:04;;;;;;;10.05;2.90;;;4.00;90.50;;;;;;5059410;28;20500;-83
2022/04/10 07:54:29;;;;;;;6.97;2.60;;;4.30;89.90;;;;;;5072220;28;20033;-83
2022/04/10 07:56:55;;;;;;;10.18;2.50;;;4.60;89.70;;;;;;5071341;28;20079;-83
2022/04/10 07:59:23;;;;;;;9.98;2.60;;;4.70;89.80;;;;;;5051361;28;20021;-83
2022/04/10 08:01:49;;;;;;;8.98;2.63;;;4.60;89.30;;;;;;5071427;28;20499;-83
2022/04/10 08:04:14;;;;;;;8.98;2.55;;;4.40;89.10;;;;;;5068464;28;20029;-83
2022/04/10 08:06:40;;;;;;;10.48;2.65;;;4.30;89.70;;;;;;5070263;28;20042;-83
2022/04/10 08:09:05;;;;;;;12.98;2.47;;;4.20;90.60;;;;;;5071341;28;20029;-83
2022/04/10 08:11:31;;;;;;;11.32;2.90;;;4.10;91.20;;;;;;5068685;28;20025;-83
2022/04/10 08:13:56;;;;;;;3.92;1.50;;;4.00;91.70;;;;;;5045656;28;20090;-83
2022/04/10 08:16:22;;;;;;;6.85;1.58;;;3.30;91.40;;;;;;5038547;28;20036;-84
2022/04/10 08:18:47;;;;;;;3.75;1.20;;;3.10;92.20;;;;;;5056333;28;20024;-84
2022/04/10 08:21:13;;;;;;;5.63;1.55;;;2.60;91.90;;;;;;5058507;28;20024;-84
2022/04/10 08:23:38;;;;;;;6.60;1.30;;;2.30;92.30;;;;;;5047629;28;20033;-83
2022/04/10 08:26:04;;;;;;;2.08;0.77;;;1.90;92.90;;;;;;5044832;28;20020;-83
2022/04/10 08:28:31;;;;;;;4.80;1.15;;;1.60;93.60;;;;;;5053844;28;20032;-83
2022/04/10 08:30:57;;;;;;;2.42;0.93;;;1.60;93.90;;;;;;5070138;28;20028;-83
2022/04/10 08:33:22;;;;;;;4.05;1.25;;;1.60;94.00;;;;;;5052168;28;20025;-83
2022/04/10 08:35:48;;;;;;;4.72;1.40;;;1.80;94.20;;;;;;5054345;28;20162;-83
2022/04/10 08:38:16;;;;;;;2.10;1.00;;;2.10;94.50;;;;;;5070280;28;20033;-83
2022/04/10 08:40:45;;;;;;;2.85;0.85;;;2.70;95.10;;;;;;5062540;28;20392;-84
2022/04/10 08:43:11;;;;;;;4.57;1.30;;;3.10;94.30;;;;;;5066051;28;20035;-84
2022/04/10 08:45:38;;;;;;;2.65;1.15;;;3.40;94.10;;;;;;5069086;28;20016;-84
2022/04/10 08:48:04;;;;;;;3.47;1.38;;;4.00;94.20;;;;;;5072905;28;20048;-83
2022/04/10 08:50:30;;;;;;;6.78;1.52;;;4.10;92.70;;;;;;5068160;28;20036;-84
2022/04/10 08:52:58;;;;;;;6.85;1.30;;;4.40;92.10;;;;;;5057036;28;20108;-84
2022/04/10 08:55:24;;;;;;;8.35;1.80;;;4.90;91.70;;;;;;5068902;28;20032;-83
2022/04/10 08:57:49;;;;;;;6.05;1.70;;;4.80;90.70;;;;;;5067620;28;20043;-84
2022/04/10 09:00:18;;;;;;;4.35;1.55;;;5.00;91.20;;;;;;5070671;28;20021;-84
2022/04/10 09:02:51;;;;;;;3.03;1.35;;;4.60;90.60;;;;;;5070030;28;20095;-84
2022/04/10 09:05:22;;;;;;;4.55;1.55;;;4.40;90.20;;;;;;5061551;28;20524;-83
2022/04/10 09:08:11;;;;;;;4.20;1.42;;;4.10;90.70;;;;;;5069365;28;20025;-84
2022/04/10 09:10:56;;;;;;;5.07;1.65;;;4.10;91.10;;;;;;5069489;28;20032;-84
2022/04/10 09:13:24;;;;;;;3.90;1.15;;;3.50;91.00;;;;;;5071124;28;20038;-84
2022/04/10 09:15:50;;;;;;;5.38;1.30;;;3.00;91.20;;;;;;5068825;28;20017;-83
2022/04/10 09:18:15;;;;;;;6.70;1.52;;;2.50;91.30;;;;;;5069126;28;20487;-83
2022/04/10 09:20:41;;;;;;;4.63;1.08;;;2.20;91.90;;;;;;5069971;28;20048;-83
2022/04/10 09:23:09;;;;;;;5.55;1.27;;;2.00;92.60;;;;;;5069599;28;20507;-84
2022/04/10 09:25:43;;;;;;;4.75;1.10;;;2.10;93.00;;;;;;5073411;28;20021;-84
2022/04/10 09:28:09;;;;;;;4.07;1.08;;;2.30;93.30;;;;;;5059864;28;20024;-84
2022/04/10 09:30:38;;;;;;;7.97;0.90;;;2.40;93.60;;;;;;5074461;28;20472;-83
2022/04/10 09:33:04;;;;;;;4.70;0.90;;;2.50;93.30;;;;;;5074282;28;20025;-83
2022/04/10 09:35:42;;;;;;;4.28;0.82;;;2.60;93.50;;;;;;5070821;28;20049;-85
2022/04/10 09:38:08;;;;;;;6.50;1.40;;;2.70;93.30;;;;;;5072583;28;20039;-84
2022/04/10 09:40:37;;;;;;;4.30;1.25;;;2.70;93.30;;;;;;5073030;28;20020;-84
2022/04/10 09:43:09;;;;;;;3.58;1.45;;;2.90;93.20;;;;;;5072970;28;20029;-84
2022/04/10 09:45:40;;;;;;;4.70;1.35;;;3.10;93.10;;;;;;5072724;28;20021;-84
2022/04/10 09:48:23;;;;;;;0.85;0.80;;;3.10;92.90;;;;;;5072721;28;20031;-84
2022/04/10 09:50:52;;;;;;;4.55;0.60;;;2.80;92.20;;;;;;5074183;28;20480;-84
2022/04/10 09:53:17;;;;;;;3.60;0.63;;;2.20;92.50;;;;;;5076144;28;20020;-83
2022/04/10 09:55:44;;;;;;;7.47;0.80;;;1.90;92.80;;;;;;5070474;28;20029;-83
2022/04/10 09:58:11;;;;;;;6.78;1.10;;;1.80;93.10;;;;;;5065198;28;20060;-83
2022/04/10 10:00:43;;;;;;;4.10;0.82;;;1.90;93.40;;;;;;5072757;28;20103;-83
2022/04/10 10:03:09;;;;;;;7.28;1.13;;;2.10;93.50;;;;;;5074112;28;20040;-84
2022/04/10 10:05:35;;;;;;;4.53;1.13;;;2.30;93.40;;;;;;5070546;28;20501;-84
2022/04/10 10:08:01;;;;;;;4.10;1.23;;;2.60;93.40;;;;;;5073724;28;20056;-83
2022/04/10 10:10:30;;;;;;;9.30;1.48;;;2.70;92.80;;;;;;5073486;28;20037;-84
2022/04/10 10:12:57;;;;;;;6.45;1.17;;;2.90;91.30;;;;;;5068258;28;20452;-83
2022/04/10 10:15:23;;;;;;;8.45;1.27;;;3.00;90.00;;;;;;5074016;28;20032;-84
2022/04/10 10:17:49;;;;;;;4.63;1.10;;;3.40;87.90;;;;;;5069356;28;20233;-84
2022/04/10 10:20:15;;;;;;;13.48;1.90;;;3.80;86.90;;;;;;5070060;28;20025;-84
2022/04/10 10:22:40;;;;;;;6.90;1.20;;;3.90;86.20;;;;;;5071560;28;20387;-84
2022/04/10 10:25:58;;;;;;;6.97;1.40;;;3.90;85.60;;;;;;5071918;28;20027;-84
2022/04/10 10:28:42;;;;;;;9.25;1.70;;;4.10;86.30;;;;;;5068021;28;20037;-84
2022/04/10 10:31:45;;;;;;;10.05;1.70;;;4.50;86.50;;;;;;5061254;28;20131;-84
2022/04/10 10:34:11;;;;;;;3.15;0.88;;;4.80;86.30;;;;;;5070800;28;20025;-84
2022/04/10 10:36:37;;;;;;;7.93;1.73;;;5.00;84.30;;;;;;5043780;28;20553;-84
2022/04/10 10:39:07;;;;;;;4.40;1.30;;;5.10;85.20;;;;;;5033948;28;20057;-84
2022/04/10 10:41:35;;;;;;;6.70;1.40;;;5.30;84.70;;;;;;5029756;28;20057;-84
2022/04/10 10:44:26;;;;;;;2.95;1.13;;;5.40;85.30;;;;;;5044533;28;20401;-84
2022/04/10 10:47:00;;;;;;;7.80;1.35;;;5.40;84.40;;;;;;5032926;28;20076;-84
2022/04/10 10:49:28;;;;;;;8.55;1.63;;;5.50;83.20;;;;;;5029991;28;20041;-84
2022/04/10 10:51:55;;;;;;;5.85;1.25;;;5.80;84.00;;;;;;5051472;28;20099;-85
2022/04/10 10:54:31;;;;;;;10.50;2.70;;;6.10;83.80;;;;;;5034663;28;20021;-84
2022/04/10 10:56:57;;;;;;;12.45;2.47;;;6.50;83.60;;;;;;5027708;28;20083;-84
2022/04/10 10:59:36;;;;;;;7.47;1.98;;;6.40;82.40;;;;;;5052262;28;20099;-84
2022/04/10 11:02:03;;;;;;;8.57;1.40;;;6.60;80.20;;;;;;5053049;28;20504;-85
2022/04/10 11:04:34;;;;;;;8.50;1.77;;;6.50;78.00;;;;;;5023096;28;20029;-85
2022/04/10 11:07:13;;;;;;;11.93;1.70;;;6.10;78.50;;;;;;5045581;28;20495;-84
2022/04/10 11:10:07;;;;;;;6.95;1.40;;;6.20;79.40;;;;;;5045846;28;20476;-84
2022/04/10 11:12:37;;;;;;;8.18;1.88;;;6.60;78.80;;;;;;5022506;28;20029;-85
2022/04/10 11:15:24;;;;;;;9.02;1.77;;;7.00;79.10;;;;;;5049826;28;20017;-85
2022/04/10 11:17:52;;;;;;;7.82;1.90;;;7.40;78.70;;;;;;5044171;28;20152;-85
2022/04/10 11:20:22;;;;;;;6.95;1.75;;;6.80;77.60;;;;;;5049010;28;20018;-84
2022/04/10 11:22:55;;;;;;;3.75;0.82;;;7.00;79.00;;;;;;5028647;28;20500;-84
2022/04/10 11:25:38;;;;;;;14.13;1.73;;;6.70;74.50;;;;;;5033848;28;20031;-84
2022/04/10 11:28:07;;;;;;;13.73;1.90;;;7.40;76.50;;;;;;5032629;28;20036;-85
2022/04/10 11:30:39;;;;;;;10.50;2.08;;;7.80;74.60;;;;;;5031355;28;20028;-85
2022/04/10 11:33:09;;;;;;;4.30;1.23;;;7.90;73.30;;;;;;5034194;28;20025;-84
2022/04/10 11:35:36;;;;;;;10.27;2.47;;;7.80;72.10;;;;;;5040772;28;20048;-85
2022/04/10 11:38:08;;;;;;;5.25;1.45;;;8.20;72.30;;;;;;5052971;28;20060;-85
2022/04/10 11:40:37;;;;;;;11.65;1.30;;;8.50;71.70;;;;;;5053003;28;20016;-85
2022/04/10 11:43:04;;;;;;;10.77;1.50;;;8.30;66.50;;;;;;5053389;28;20021;-85
2022/04/10 11:45:31;;;;;;;11.40;1.45;;;8.30;67.00;;;;;;5081884;28;20479;-85
2022/04/10 11:47:57;;;;;;;8.73;1.98;;;8.50;66.50;;;;;;5044449;28;20025;-85
2022/04/10 11:50:24;;;;;;;3.40;1.13;;;8.30;64.80;;;;;;5038431;28;20024;-85
2022/04/10 11:53:01;;;;;;;6.95;1.38;;;8.20;64.50;;;;;;5071065;28;20035;-85
2022/04/10 11:55:45;;;;;;;3.38;0.93;;;8.50;67.80;;;;;;5070269;28;20096;-84
2022/04/10 11:58:15;;;;;;;9.52;2.00;;;8.60;65.40;;;;;;5069684;28;20517;-85
2022/04/10 12:00:55;;;;;;;6.80;1.48;;;8.30;64.70;;;;;;5053379;28;20020;-84
2022/04/10 12:03:26;;;;;;;4.35;1.40;;;7.40;69.60;;;;;;5052925;28;20028;-84
2022/04/10 12:05:52;;;;;;;5.88;1.33;;;6.90;74.20;;;;;;5068223;28;20082;-84
2022/04/10 12:08:19;;;;;;;2.58;0.68;;;6.70;72.40;;;;;;5053404;28;20032;-84
2022/04/10 12:10:53;;;;;;;2.10;0.77;;;6.60;74.70;;;;;;5039725;28;20025;-84
2022/04/10 12:13:18;;;;;;;6.47;1.30;;;6.70;78.00;;;;;;5055048;28;20357;-84
2022/04/10 12:15:44;;;;;;;6.22;1.23;;;6.00;82.80;;;;;;5051891;28;20028;-84
2022/04/10 12:18:12;;;;;;;4.95;1.05;;;5.50;85.10;;;;;;5058339;28;20488;-84
2022/04/10 12:20:39;;;;;;;9.15;1.52;;;5.10;84.50;;;;;;5069304;28;20044;-84
2022/04/10 12:23:19;;;;;;;4.82;1.40;;;4.70;83.90;;;;;;5053240;28;20024;-84
2022/04/10 12:25:45;;;;;;;6.55;1.52;;;4.70;85.50;;;;;;5053095;28;20055;-84
2022/04/10 12:28:11;;;;;;;10.32;1.75;;;4.80;85.60;;;;;;5071055;28;20032;-84
2022/04/10 12:30:38;;;;;;;7.18;1.27;;;4.90;85.80;;;;;;5070584;28;20369;-84
2022/04/10 12:33:04;;;;;;;6.68;1.75;;;5.00;85.60;;;;;;5054037;28;20060;-84
2022/04/10 12:35:37;;;;;;;8.77;2.13;;;5.10;85.00;;;;;;5047365;28;20408;-84
2022/04/10 12:38:03;;;;;;;7.13;1.90;;;5.10;86.00;;;;;;5062929;28;20068;-83
2022/04/10 12:40:29;;;;;;;7.55;1.80;;;5.30;86.20;;;;;;5071764;28;20036;-84
2022/04/10 12:42:59;;;;;;;10.32;2.05;;;5.70;85.20;;;;;;5072520;28;20025;-84
2022/04/10 12:45:27;;;;;;;11.52;1.95;;;6.30;83.60;;;;;;5081712;28;20078;-84
2022/04/10 12:47:53;;;;;;;9.63;1.95;;;6.80;81.80;;;;;;5062878;28;20365;-84
2022/04/10 12:50:19;;;;;;;5.22;1.50;;;7.80;81.70;;;;;;5067641;28;20094;-84
2022/04/10 12:52:46;;;;;;;8.35;2.17;;;8.10;77.90;;;;;;5070585;28;20035;-85
2022/04/10 12:55:22;;;;;;;15.90;2.30;;;8.70;77.40;;;;;;5067230;28;20364;-84
2022/04/10 12:58:03;;;;;;;9.40;2.22;;;8.40;73.50;;;;;;5062831;28;20470;-84
2022/04/10 13:00:34;;;;;;;13.00;2.28;;;9.40;75.50;;;;;;5074456;28;20369;-84